createdAt,value
2018-05-23T00:03:39.989Z,75
2018-05-23T00:08:39.983Z,75
2018-05-23T00:13:40.616Z,75
2018-05-23T00:18:40.003Z,75
2018-05-23T00:23:40.331Z,76
2018-05-23T00:28:39.770Z,76
2018-05-23T00:33:40.180Z,77
2018-05-23T00:38:40.689Z,77
2018-05-23T00:43:40.119Z,77
2018-05-23T00:48:40.551Z,77
2018-05-23T00:53:39.904Z,78
2018-05-23T00:58:40.366Z,78
2018-05-23T01:03:39.761Z,78
2018-05-23T01:08:40.313Z,78
2018-05-23T01:13:40.685Z,79
2018-05-23T01:18:40.168Z,79
2018-05-23T01:23:40.619Z,79
2018-05-23T01:28:40.046Z,79
2018-05-23T01:33:40.471Z,80
2018-05-23T01:38:39.893Z,80
2018-05-23T01:43:40.427Z,80
2018-05-23T01:48:39.840Z,80
2018-05-23T01:53:40.416Z,80
2018-05-23T01:58:39.879Z,80
2018-05-23T02:03:40.359Z,81
2018-05-23T02:08:40.071Z,81
2018-05-23T02:13:40.493Z,82
2018-05-23T02:18:39.928Z,82
2018-05-23T02:23:40.316Z,82
2018-05-23T02:28:40.665Z,82
2018-05-23T02:33:40.045Z,82
2018-05-23T02:38:40.419Z,82
2018-05-23T02:43:39.938Z,82
2018-05-23T02:48:40.281Z,82
2018-05-23T02:53:40.694Z,83
2018-05-23T02:58:40.054Z,83
2018-05-23T03:03:40.488Z,84
2018-05-23T03:08:40.263Z,84
2018-05-23T03:13:40.730Z,84
2018-05-23T03:18:40.049Z,84
2018-05-23T03:23:40.446Z,85
2018-05-23T03:28:39.906Z,85
2018-05-23T03:33:40.436Z,86
2018-05-23T03:38:40.754Z,86
2018-05-23T03:43:40.370Z,86
2018-05-23T03:48:40.851Z,86
2018-05-23T03:53:40.276Z,87
2018-05-23T03:58:40.767Z,87
2018-05-23T04:03:40.362Z,88
2018-05-23T04:08:40.205Z,88
2018-05-23T04:13:40.711Z,89
2018-05-23T04:18:40.230Z,89
2018-05-23T04:23:40.789Z,90
2018-05-23T04:28:40.463Z,90
2018-05-23T04:33:40.735Z,91
2018-05-23T04:38:40.115Z,91
2018-05-23T04:43:40.617Z,91
2018-05-23T04:48:40.180Z,91
2018-05-23T04:53:40.821Z,91
2018-05-23T04:58:40.405Z,91
2018-05-23T05:03:40.927Z,90
2018-05-23T05:08:40.624Z,90
2018-05-23T05:13:40.221Z,89
2018-05-23T05:18:40.712Z,89
2018-05-23T05:23:40.206Z,88
2018-05-23T05:28:40.669Z,88
2018-05-23T05:33:40.159Z,86
2018-05-23T05:38:40.549Z,86
2018-05-23T05:43:40.111Z,84
2018-05-23T05:48:40.647Z,84
2018-05-23T05:53:40.121Z,83
2018-05-23T05:58:40.665Z,83
2018-05-23T06:03:41.036Z,81
2018-05-23T06:08:40.943Z,81
2018-05-23T06:13:40.556Z,79
2018-05-23T06:18:40.663Z,79
2018-05-23T06:23:40.045Z,77
2018-05-23T06:28:40.516Z,77
2018-05-23T06:33:41.015Z,74
2018-05-23T06:38:40.443Z,74
2018-05-23T06:43:40.920Z,72
2018-05-23T06:48:40.477Z,72
2018-05-23T06:53:40.896Z,67
2018-05-23T06:58:40.406Z,67
2018-05-23T07:03:40.945Z,64
2018-05-23T07:08:40.546Z,64
2018-05-23T07:13:40.159Z,62
2018-05-23T07:18:40.584Z,62
2018-05-23T07:23:41.100Z,61
2018-05-23T07:28:40.486Z,61
2018-05-23T07:33:40.915Z,58
2018-05-23T07:38:40.289Z,58
2018-05-23T07:43:40.749Z,56
2018-05-23T07:48:40.203Z,56
2018-05-23T07:53:40.647Z,55
2018-05-23T07:58:41.139Z,55
2018-05-23T08:03:40.710Z,55
2018-05-23T08:08:41.051Z,55
2018-05-23T08:13:40.593Z,48
2018-05-23T08:18:41.096Z,48
2018-05-23T08:23:40.658Z,50
2018-05-23T08:28:41.108Z,50
2018-05-23T08:33:40.594Z,47
2018-05-23T08:38:41.153Z,47
2018-05-23T08:43:40.732Z,47
2018-05-23T08:48:41.209Z,47
2018-05-23T08:53:40.792Z,45
2018-05-23T08:58:40.297Z,45
2018-05-23T09:03:40.895Z,45
2018-05-23T09:08:41.017Z,45
2018-05-23T09:13:40.536Z,42
2018-05-23T09:18:40.918Z,42
2018-05-23T09:23:40.344Z,42
2018-05-23T09:28:40.741Z,42
2018-05-23T09:33:41.217Z,40
2018-05-23T09:38:40.787Z,40
2018-05-23T09:43:41.236Z,41
2018-05-23T09:48:40.701Z,41
2018-05-23T09:53:41.217Z,42
2018-05-23T09:58:40.737Z,42
2018-05-23T10:03:41.214Z,41
2018-05-23T10:08:40.979Z,41
2018-05-23T10:13:40.372Z,40
2018-05-23T10:18:40.809Z,40
2018-05-23T10:23:41.227Z,41
2018-05-23T10:28:40.773Z,41
2018-05-23T10:33:41.365Z,41
2018-05-23T10:38:40.859Z,41
2018-05-23T10:43:40.422Z,39
2018-05-23T10:48:40.846Z,39
2018-05-23T10:53:41.297Z,40
2018-05-23T10:58:40.853Z,40
2018-05-23T11:03:41.531Z,39
2018-05-23T11:08:40.744Z,39
2018-05-23T11:13:41.205Z,38
2018-05-23T11:18:40.732Z,38
2018-05-23T11:23:41.255Z,40
2018-05-23T11:28:40.849Z,40
2018-05-23T11:33:40.444Z,37
2018-05-23T11:38:41.003Z,37
2018-05-23T11:43:40.501Z,39
2018-05-23T11:48:41.196Z,39
2018-05-23T11:53:40.587Z,36
2018-05-23T11:58:41.027Z,36
2018-05-23T12:03:40.649Z,36
2018-05-23T12:08:41.115Z,36
2018-05-23T12:13:41.316Z,38
2018-05-23T12:18:40.764Z,38
2018-05-23T12:23:41.263Z,40
2018-05-23T12:28:40.903Z,40
2018-05-23T12:33:41.428Z,44
2018-05-23T12:38:41.140Z,44
2018-05-23T12:43:40.685Z,43
2018-05-23T12:48:41.310Z,43
2018-05-23T12:53:41.044Z,44
2018-05-23T12:58:40.540Z,44
2018-05-23T13:03:41.246Z,42
2018-05-23T13:08:41.333Z,42
2018-05-23T13:13:41.185Z,44
2018-05-23T13:18:40.629Z,44
2018-05-23T13:23:41.220Z,46
2018-05-23T13:28:40.965Z,46
2018-05-23T13:33:41.450Z,46
2018-05-23T13:38:41.114Z,46
2018-05-23T13:43:40.709Z,45
2018-05-23T13:48:41.188Z,45
2018-05-23T13:53:40.693Z,46
2018-05-23T13:58:41.230Z,46
2018-05-23T14:03:40.969Z,46
2018-05-23T14:08:41.519Z,46
2018-05-23T14:13:41.065Z,46
2018-05-23T14:18:41.570Z,46
2018-05-23T14:23:40.985Z,47
2018-05-23T14:28:41.413Z,47
2018-05-23T14:33:41.201Z,46
2018-05-23T14:38:40.651Z,46
2018-05-23T14:43:41.262Z,45
2018-05-23T14:48:40.812Z,45
2018-05-23T14:53:41.231Z,47
2018-05-23T14:58:40.709Z,47
2018-05-23T15:03:41.322Z,46
2018-05-23T15:08:41.418Z,46
2018-05-23T15:13:40.971Z,48
2018-05-23T15:18:40.770Z,48
2018-05-23T15:23:41.256Z,47
2018-05-23T15:28:40.674Z,47
2018-05-23T15:33:41.157Z,46
2018-05-23T15:38:41.625Z,46
2018-05-23T15:43:41.116Z,45
2018-05-23T15:48:41.545Z,45
2018-05-23T15:53:40.992Z,44
2018-05-23T15:58:41.666Z,44
2018-05-23T16:03:41.290Z,44
2018-05-23T16:08:41.767Z,44
2018-05-23T16:13:41.481Z,46
2018-05-23T16:18:41.029Z,46
2018-05-23T16:23:41.517Z,44
2018-05-23T16:28:41.016Z,44
2018-05-23T16:33:41.542Z,44
2018-05-23T16:38:40.988Z,44
2018-05-23T16:43:41.370Z,45
2018-05-23T16:48:40.791Z,45
2018-05-23T16:53:41.308Z,44
2018-05-23T16:58:40.777Z,44
2018-05-23T17:03:41.317Z,44
2018-05-23T17:08:40.833Z,44
2018-05-23T17:13:41.160Z,44
2018-05-23T17:18:41.686Z,44
2018-05-23T17:23:41.152Z,44
2018-05-23T17:28:41.590Z,44
2018-05-23T17:33:41.126Z,44
2018-05-23T17:38:41.740Z,44
2018-05-23T17:43:41.194Z,44
2018-05-23T17:48:41.722Z,44
2018-05-23T17:53:41.190Z,45
2018-05-23T17:58:40.814Z,45
2018-05-23T18:03:41.395Z,45
2018-05-23T18:08:41.807Z,45
2018-05-23T18:13:41.279Z,46
2018-05-23T18:18:41.742Z,46
2018-05-23T18:23:41.324Z,46
2018-05-23T18:28:41.860Z,46
2018-05-23T18:33:41.319Z,48
2018-05-23T18:38:41.814Z,48
2018-05-23T18:43:41.256Z,50
2018-05-23T18:48:41.720Z,50
2018-05-23T18:53:41.185Z,50
2018-05-23T18:58:41.611Z,50
2018-05-23T19:03:41.060Z,51
2018-05-23T19:08:41.563Z,51
2018-05-23T19:13:41.850Z,52
2018-05-23T19:18:41.307Z,52
2018-05-23T19:23:41.789Z,52
2018-05-23T19:28:41.286Z,52
2018-05-23T19:33:41.710Z,53
2018-05-23T19:38:41.210Z,53
2018-05-23T19:43:41.620Z,54
2018-05-23T19:48:41.068Z,54
2018-05-23T19:53:41.531Z,55
2018-05-23T19:58:41.024Z,55
2018-05-23T20:03:41.477Z,56
2018-05-23T20:08:41.950Z,56
2018-05-23T20:13:41.399Z,57
2018-05-23T20:18:41.814Z,57
2018-05-23T20:23:41.183Z,58
2018-05-23T20:28:41.693Z,58
2018-05-23T20:33:41.137Z,59
2018-05-23T20:38:41.759Z,59
2018-05-23T20:43:41.189Z,60
2018-05-23T20:48:41.609Z,60
2018-05-23T20:53:41.136Z,61
2018-05-23T20:58:41.723Z,61
2018-05-23T21:03:41.277Z,62
2018-05-23T21:08:41.758Z,62
2018-05-23T21:13:41.391Z,63
2018-05-23T21:18:41.742Z,63
2018-05-23T21:23:41.135Z,63
2018-05-23T21:28:41.596Z,63
2018-05-23T21:33:42.156Z,64
2018-05-23T21:38:41.588Z,64
2018-05-23T21:43:41.079Z,65
2018-05-23T21:48:41.498Z,65
2018-05-23T21:53:41.957Z,66
2018-05-23T21:58:41.432Z,66
2018-05-23T22:03:42.266Z,66
2018-05-23T22:08:41.731Z,66
2018-05-23T22:13:41.243Z,67
2018-05-23T22:18:41.908Z,67
2018-05-23T22:23:41.291Z,67
2018-05-23T22:28:41.725Z,67
2018-05-23T22:33:41.206Z,68
2018-05-23T22:38:41.728Z,68
2018-05-23T22:43:41.184Z,70
2018-05-23T22:48:41.718Z,70
2018-05-23T22:53:42.213Z,71
2018-05-23T22:58:41.616Z,71
2018-05-23T23:03:42.186Z,72
2018-05-23T23:08:41.648Z,72
2018-05-23T23:13:42.227Z,72
2018-05-23T23:18:41.914Z,72
2018-05-23T23:23:41.313Z,73
2018-05-23T23:28:41.903Z,73
2018-05-23T23:33:41.385Z,73
2018-05-23T23:38:41.764Z,73
2018-05-23T23:43:42.200Z,74
2018-05-23T23:48:41.674Z,74
2018-05-23T23:53:42.059Z,74
2018-05-23T23:58:41.430Z,74
